Francis Place, Louisiana
Current Conditions -  °F | °C
As of 2:53 AM on Saturday 20 Dec 2014 (Local Time) from KNEW Reporting Station
Overcast Overcast  
Wind Chill: 53°   Ceiling: 500
Heat Index: 53°   Visibility: 10mi
Dew Point: 50°   Wind: 17mph
Humidity: 89%   Direction: 60°ENE
Pressure: 30.06"   Gusts: NA
Location:  29.9486°N, 89.8975°W
Report Text: KNEW 200853Z AUTO 06015KT 10SM OVC005 12/10 A3006 RMK AO2 RAB0757E11 SLP172 P0002 60014 T01170100 55006 TSNO
Loading
Personal Weather Stations






























Interactive Weather Map New forecast layout! Learn more

10-Day Weather Forecast

Advertisements
Track Severe Weather on mobile